Aérodrome :
LOGIN :

S'inscrire | Disclaimer

   EN    FR    IT 

 










Légende :    VFR   VFR Marginal   IFR   IFR Intensif   IFR Très Intensif
Visi : 
Plafond : 
>= 8 km
>= 3000ft
5 à 8 km
1000 à 3000 ft
1500m à 5 km
500 à 1000 ft
800 à 1500m
200 à 500 ft
< 800m
< 200 ft
Symboles :   Orages  Brouillard  Fortes neiges  Fortes précipitations  Vent > 20 kt
SIGMETs :   Divers  Orages  Givrage  Turbulence  Onde Orograph.  Cendres Volcan.







- Altitude de l'aérodrome : 545 ft
- Code IATA : PZY


LZPP - Piešťany

DERNIER METAR :
  • 211100Z 15009KT 120V180 CAVOK 26/14 Q1015

METARs EXPIRÉS :
  • 211030Z 15010KT CAVOK 25/13 Q1015
  • 211000Z 14009KT CAVOK 25/14 Q1016
  • 210930Z 14009KT CAVOK 24/13 Q1016
  • 210900Z 14006KT CAVOK 23/13 Q1017
  • 210830Z 19003KT CAVOK 22/13 Q1017

TAF TAF LZPP
Valide du 21 à 09h jusqu'au 21 à 18h UTC


210800Z 2109/2118 15010KT 9999 FEW040
BECMG 2110/2112 18014KT CAVOK
TEMPO 2110/2115 18015G25KT
BECMG 2116/2118 17009KT
Pas de NOTAMs connus pour ce terrain.



MET'MAP, la Météo Aéronautique d'un coup d'oeil ! - Copyright ORBIFLY Décembre 2007 - Disclaimer

ORBIFLY MET'MAP TEAM :

Programmation & Développement : Alexandra Zaïnal
Conception & Développement : Baudouin d'Aumeries
Co-Programmation & Développement : Marc-Olivier Méhu
Soutien technique & logistique : Manuel Goepfert

Contact : metmap@orbifly.com




SOURCES & CREDITS :

   NOAA